Terminal Aerodrome Forecast
Issued by NWS

Home | Current Version | Previous Version | Text Only | Print | Product List | Glossary On
Versions: 1 2 3 4 5 6 7 8 9 10 11 12 13 14 15 16
000
FTUS44 KTSA 291300 AAB
TAFMLC
TAF AMD
KMLC 291339Z 2914/3012 17006KT P6SM SCT004 BKN035
      TEMPO 2914/2916 6SM -RA BKN015
     FM291600 16004KT P6SM BKN015
      TEMPO 2916/2918 -TSRA BKN015CB
     FM291800 18010KT P6SM BKN025
      TEMPO 2918/2922 2SM -TSRA BKN015CB
     FM300000 20007KT P6SM BKN050
     FM300600 19002KT P6SM OVC100
     FM300900 23002KT 4SM BR OVC015=

USA.gov is the U.S. government's official web portal to all federal, state and local government web resources and services.